Terminal Aerodrome Forecast
Issued by NWS Raleigh/Durham, NC

Home | Current Version | Previous Version | Text Only | Print | Product List | Glossary On
Versions: 1 2 3 4 5 6 7 8 9 10 11 12 13 14 15 16 17 18 19 20 21 22 23 24 25 26 27 28 29 30 31 32 33 34 35
000
FTUS42 KRAH 220540
TAFRDU
TAF
KRDU 220540Z 2206/2306 00000KT 6SM BR FEW002 BKN250
     FM220800 00000KT 1/4SM FG VV002
      TEMPO 2208/2210 2SM BR BKN004
     FM221400 02003KT 1 1/2SM BR BKN004
     FM221500 06003KT P6SM FEW025 BKN250=

USA.gov is the U.S. government's official web portal to all federal, state and local government web resources and services.